Time;durP1;ratioP1;P1;durP2;ratioP2;P2;SDS_P1;SDS_P2;PMS_P1;PMS_P2;Temp;Humidity;BMP_temperature;BMP_pressure;BME280_temperature;BME280_humidity;BME280_pressure;Samples;Min_cycle;Max_cycle;Signal;HPM_P1;HPM_P2
2023/09/16 00:02:18;;;;;;;3.83;3.00;;;17.30;99.90;;;;;;5052342;28;20553;-67
2023/09/16 00:04:45;;;;;;;4.97;2.97;;;17.30;99.90;;;;;;5055474;28;20439;-67
2023/09/16 00:07:13;;;;;;;4.00;2.53;;;17.30;99.90;;;;;;5054780;28;20540;-69
2023/09/16 00:09:42;;;;;;;4.07;2.53;;;17.20;99.90;;;;;;5055109;28;20412;-69
2023/09/16 00:12:09;;;;;;;5.00;2.67;;;17.20;99.90;;;;;;5055735;28;20432;-67
2023/09/16 00:14:37;;;;;;;5.03;3.03;;;17.20;99.90;;;;;;5054465;28;20455;-68
2023/09/16 00:17:05;;;;;;;5.07;2.97;;;17.10;99.90;;;;;;5055902;28;20848;-66
2023/09/16 00:19:32;;;;;;;5.13;3.23;;;17.10;99.90;;;;;;5054451;28;20518;-68
2023/09/16 00:22:00;;;;;;;10.23;3.50;;;17.10;99.90;;;;;;5020725;28;21012;-68
2023/09/16 00:24:29;;;;;;;4.27;3.07;;;17.00;99.90;;;;;;5055629;28;20514;-68
2023/09/16 00:26:58;;;;;;;5.43;2.90;;;17.00;99.90;;;;;;5054520;28;20470;-67
2023/09/16 00:29:25;;;;;;;4.40;2.97;;;16.90;99.90;;;;;;5054750;28;20451;-68
2023/09/16 00:31:53;;;;;;;13.23;3.63;;;16.90;99.90;;;;;;5055137;28;20419;-67
2023/09/16 00:34:20;;;;;;;2.90;2.60;;;16.90;99.90;;;;;;5055009;28;20451;-68
2023/09/16 00:36:48;;;;;;;6.00;3.53;;;16.90;99.90;;;;;;5055805;28;21038;-68
2023/09/16 00:39:15;;;;;;;3.20;2.37;;;16.90;99.90;;;;;;5058487;28;20481;-68
2023/09/16 00:41:45;;;;;;;3.90;2.80;;;16.80;99.90;;;;;;5036738;28;20746;-67
2023/09/16 00:44:13;;;;;;;3.37;2.97;;;16.80;99.90;;;;;;5055425;28;20555;-68
2023/09/16 00:46:41;;;;;;;6.10;3.07;;;16.70;99.90;;;;;;5054040;28;20540;-68
2023/09/16 00:49:09;;;;;;;4.80;2.43;;;16.70;99.90;;;;;;5054896;28;20427;-68
2023/09/16 00:51:40;;;;;;;5.10;3.30;;;16.70;99.90;;;;;;5054751;28;20466;-68
2023/09/16 00:54:08;;;;;;;4.20;2.67;;;16.60;99.90;;;;;;5054450;28;20471;-68
2023/09/16 00:56:36;;;;;;;4.27;3.33;;;16.70;99.90;;;;;;5055678;28;20570;-68
2023/09/16 00:59:05;;;;;;;4.53;2.90;;;16.60;99.90;;;;;;5054132;28;20499;-68
2023/09/16 01:01:32;;;;;;;2.80;2.40;;;16.50;99.90;;;;;;5055175;28;20467;-68
2023/09/16 01:04:00;;;;;;;4.93;3.00;;;16.50;99.90;;;;;;5054621;28;20793;-68
2023/09/16 01:06:27;;;;;;;5.63;2.73;;;16.50;99.90;;;;;;5054387;28;20455;-68
2023/09/16 01:08:55;;;;;;;4.30;3.37;;;16.50;99.90;;;;;;5041566;28;20511;-67
2023/09/16 01:11:24;;;;;;;4.83;2.90;;;16.40;99.90;;;;;;5034992;28;20561;-68
2023/09/16 01:13:51;;;;;;;4.90;3.30;;;16.40;99.90;;;;;;5033881;28;20838;-68
2023/09/16 01:16:28;;;;;;;4.50;2.70;;;16.40;99.90;;;;;;5033867;28;20574;-68
2023/09/16 01:19:00;;;;;;;4.10;3.10;;;16.40;99.90;;;;;;5033981;28;20440;-68
2023/09/16 01:21:27;;;;;;;3.80;3.40;;;16.40;99.90;;;;;;5034434;28;20424;-68
2023/09/16 01:24:18;;;;;;;3.83;3.00;;;16.30;99.90;;;;;;5034271;28;20523;-68
2023/09/16 01:26:47;;;;;;;5.17;2.67;;;16.30;99.90;;;;;;5052273;28;20509;-68
2023/09/16 01:29:15;;;;;;;4.23;2.73;;;16.30;99.90;;;;;;5054181;28;20511;-67
2023/09/16 01:31:46;;;;;;;3.93;2.93;;;16.30;99.90;;;;;;5054566;28;20448;-68
2023/09/16 01:34:19;;;;;;;4.13;2.50;;;16.20;99.90;;;;;;5038409;28;20944;-68
2023/09/16 01:36:47;;;;;;;3.63;2.60;;;16.20;99.90;;;;;;5034680;28;20483;-67
2023/09/16 01:39:16;;;;;;;6.13;3.70;;;16.20;99.90;;;;;;5047403;28;20466;-67
2023/09/16 01:41:45;;;;;;;5.10;3.00;;;16.20;99.90;;;;;;5054489;28;20795;-69
2023/09/16 01:44:15;;;;;;;3.37;2.30;;;16.20;99.90;;;;;;5054062;28;20952;-68
2023/09/16 01:46:43;;;;;;;3.33;2.80;;;16.10;99.90;;;;;;5054036;28;20543;-69
2023/09/16 01:49:10;;;;;;;3.73;2.67;;;16.10;99.90;;;;;;5054006;28;20483;-67
2023/09/16 01:51:37;;;;;;;4.17;3.20;;;16.10;99.90;;;;;;5054677;28;20896;-68
2023/09/16 01:54:06;;;;;;;4.70;2.30;;;16.00;99.90;;;;;;5053869;28;20467;-67
2023/09/16 01:56:33;;;;;;;3.03;2.40;;;16.00;99.90;;;;;;5054100;28;20482;-68
2023/09/16 01:59:08;;;;;;;5.20;2.83;;;16.10;99.90;;;;;;5053612;28;20525;-68
2023/09/16 02:01:36;;;;;;;3.07;2.47;;;16.00;99.90;;;;;;5053646;28;20474;-68
2023/09/16 02:04:03;;;;;;;4.23;2.47;;;16.00;99.90;;;;;;5052792;28;20467;-69
2023/09/16 02:06:30;;;;;;;4.40;2.47;;;16.00;99.90;;;;;;5033734;28;20462;-67
2023/09/16 02:09:04;;;;;;;5.63;3.50;;;15.90;99.90;;;;;;5034256;28;20483;-68
2023/09/16 02:14:13;;;;;;;3.57;3.00;;;15.90;99.90;;;;;;5032473;28;20486;-68
2023/09/16 02:16:45;;;;;;;8.30;3.60;;;15.90;99.90;;;;;;5050594;28;20487;-69
2023/09/16 02:19:14;;;;;;;3.97;2.53;;;15.90;99.90;;;;;;5053748;28;20475;-68
2023/09/16 02:21:41;;;;;;;3.87;2.30;;;15.90;99.90;;;;;;5053742;28;20858;-68
2023/09/16 02:24:09;;;;;;;4.70;2.60;;;15.80;99.90;;;;;;5053378;28;20543;-67
2023/09/16 02:26:40;;;;;;;3.00;2.57;;;15.80;99.90;;;;;;5052518;28;20460;-67
2023/09/16 02:29:13;;;;;;;5.30;3.40;;;15.70;99.90;;;;;;5046613;28;20511;-67
2023/09/16 02:31:42;;;;;;;3.67;2.47;;;15.70;99.90;;;;;;5033360;28;20420;-68
2023/09/16 02:34:09;;;;;;;4.00;2.50;;;15.80;99.90;;;;;;5040454;28;20988;-68
2023/09/16 02:36:37;;;;;;;3.20;2.17;;;15.70;99.90;;;;;;5053117;28;20569;-68
2023/09/16 02:39:04;;;;;;;4.47;2.30;;;15.70;99.90;;;;;;5053757;28;20879;-68
2023/09/16 02:41:35;;;;;;;3.40;2.47;;;15.70;99.90;;;;;;5053903;28;20432;-68
2023/09/16 02:44:03;;;;;;;6.67;2.57;;;15.70;99.90;;;;;;5053619;28;20480;-68
2023/09/16 02:46:31;;;;;;;12.57;2.70;;;15.70;99.90;;;;;;5053245;28;20825;-68
2023/09/16 02:49:13;;;;;;;6.60;2.53;;;15.60;99.90;;;;;;5053167;28;20521;-68
2023/09/16 02:51:43;;;;;;;6.83;3.10;;;15.60;99.90;;;;;;5052890;28;20424;-68
2023/09/16 02:54:12;;;;;;;4.70;2.93;;;15.60;99.90;;;;;;5053234;28;20432;-68
2023/09/16 02:56:47;;;;;;;5.40;3.40;;;15.60;99.90;;;;;;5052620;28;20486;-70
2023/09/16 02:59:30;;;;;;;5.77;2.87;;;15.50;99.90;;;;;;5052290;28;20550;-67
2023/09/16 03:01:57;;;;;;;4.27;2.67;;;15.50;99.90;;;;;;5038766;28;20825;-68
2023/09/16 03:04:31;;;;;;;6.17;2.67;;;15.50;99.90;;;;;;5032875;28;20432;-68
2023/09/16 03:06:58;;;;;;;4.87;2.93;;;15.40;99.90;;;;;;5027450;28;20498;-68
2023/09/16 03:09:25;;;;;;;3.87;3.20;;;15.40;99.90;;;;;;5052606;28;20530;-68
2023/09/16 03:12:03;;;;;;;3.10;2.03;;;15.40;99.90;;;;;;5053001;28;20793;-68
2023/09/16 03:14:30;;;;;;;4.20;3.00;;;15.40;99.90;;;;;;5053329;28;20478;-68
2023/09/16 03:16:57;;;;;;;3.83;2.20;;;15.40;99.90;;;;;;5053165;28;20517;-68
2023/09/16 03:19:28;;;;;;;4.93;3.03;;;15.40;99.90;;;;;;5053422;28;20924;-68
2023/09/16 03:21:57;;;;;;;3.77;2.57;;;15.30;99.90;;;;;;5053184;28;20427;-68
2023/09/16 03:24:48;;;;;;;4.93;2.80;;;15.30;99.90;;;;;;5052986;28;20506;-68
2023/09/16 03:27:17;;;;;;;8.93;2.73;;;15.30;99.90;;;;;;5053316;28;20834;-68
2023/09/16 03:29:44;;;;;;;3.83;2.70;;;15.30;99.90;;;;;;5052708;28;20485;-68
2023/09/16 03:32:27;;;;;;;4.80;2.73;;;15.30;99.90;;;;;;5053013;28;20514;-68
2023/09/16 03:35:10;;;;;;;3.40;3.10;;;15.30;99.90;;;;;;5052658;28;20509;-68
2023/09/16 03:37:36;;;;;;;3.80;2.67;;;15.30;99.90;;;;;;5054507;28;20913;-68
2023/09/16 03:40:04;;;;;;;3.77;2.50;;;15.30;99.90;;;;;;5056771;28;20455;-68
2023/09/16 03:42:32;;;;;;;4.27;2.60;;;15.30;99.90;;;;;;5056803;28;20471;-68
2023/09/16 03:45:18;;;;;;;7.03;2.60;;;15.30;99.90;;;;;;5056897;28;20493;-68
2023/09/16 03:47:45;;;;;;;3.77;2.70;;;15.20;99.90;;;;;;5056750;28;20459;-68
2023/09/16 03:50:14;;;;;;;5.53;2.60;;;15.20;99.90;;;;;;5056831;28;20913;-69
2023/09/16 03:52:50;;;;;;;5.80;2.97;;;15.20;99.90;;;;;;5056502;28;20518;-68
2023/09/16 03:55:39;;;;;;;10.20;2.30;;;15.20;99.90;;;;;;5056470;28;20509;-68
2023/09/16 03:58:10;;;;;;;3.63;2.57;;;15.20;99.90;;;;;;5056470;28;20898;-68
2023/09/16 04:00:37;;;;;;;6.57;2.43;;;15.20;99.90;;;;;;5056138;28;20804;-68
2023/09/16 04:03:05;;;;;;;3.40;2.90;;;15.10;99.90;;;;;;5056680;28;20435;-68
2023/09/16 04:05:33;;;;;;;7.67;4.73;;;15.10;99.90;;;;;;5056760;28;20991;-68
2023/09/16 04:08:00;;;;;;;3.80;2.83;;;15.10;99.90;;;;;;5056308;28;20454;-70
2023/09/16 04:10:27;;;;;;;4.70;2.87;;;15.10;99.90;;;;;;5056834;28;20859;-69
2023/09/16 04:12:56;;;;;;;6.97;3.20;;;15.10;99.90;;;;;;5057019;28;20785;-68
2023/09/16 04:15:24;;;;;;;5.30;3.13;;;15.10;99.90;;;;;;5056144;28;20475;-69
2023/09/16 04:17:51;;;;;;;4.70;3.00;;;15.00;99.90;;;;;;5055548;28;20578;-69
2023/09/16 04:20:20;;;;;;;7.50;3.37;;;15.00;99.90;;;;;;5056125;28;20459;-69
2023/09/16 04:23:09;;;;;;;4.53;3.13;;;15.00;99.90;;;;;;5055820;28;21019;-69
2023/09/16 04:25:38;;;;;;;4.83;3.23;;;14.90;99.90;;;;;;5056097;28;20570;-69
2023/09/16 04:28:05;;;;;;;3.50;2.50;;;14.90;99.90;;;;;;5055814;28;20498;-68
2023/09/16 04:30:38;;;;;;;2.70;2.10;;;14.90;99.90;;;;;;5055670;28;20428;-67
2023/09/16 04:33:41;;;;;;;6.47;3.83;;;14.90;99.90;;;;;;5056213;28;20928;-67
2023/09/16 04:36:15;;;;;;;4.50;3.10;;;14.90;99.90;;;;;;5055783;28;20843;-67
2023/09/16 04:38:43;;;;;;;5.00;3.00;;;14.90;99.90;;;;;;5055889;28;20467;-68
2023/09/16 04:41:10;;;;;;;3.37;2.50;;;14.90;99.90;;;;;;5055972;28;20451;-67
2023/09/16 04:43:55;;;;;;;4.13;3.03;;;14.90;99.90;;;;;;5055730;28;20448;-67
2023/09/16 04:46:24;;;;;;;3.90;2.30;;;14.80;99.90;;;;;;5055103;28;20470;-68
2023/09/16 04:48:51;;;;;;;4.33;3.10;;;14.80;99.90;;;;;;5054184;28;20948;-67
2023/09/16 04:51:18;;;;;;;4.87;2.63;;;14.80;99.90;;;;;;5055524;28;20470;-67
2023/09/16 04:53:50;;;;;;;3.20;2.60;;;14.80;99.90;;;;;;5052910;28;20439;-67
2023/09/16 04:56:30;;;;;;;5.93;3.03;;;14.80;99.90;;;;;;5075334;28;20474;-67
2023/09/16 04:59:01;;;;;;;4.07;3.37;;;14.70;99.90;;;;;;5057926;28;20916;-67
2023/09/16 05:02:01;;;;;;;3.90;3.03;;;14.70;99.90;;;;;;5054931;28;20467;-68
2023/09/16 05:04:28;;;;;;;10.20;3.30;;;14.70;99.90;;;;;;5055487;28;20455;-69
2023/09/16 05:06:56;;;;;;;5.57;2.53;;;14.70;99.90;;;;;;5055106;28;20467;-68
2023/09/16 05:09:32;;;;;;;7.93;2.83;;;14.70;99.90;;;;;;5055454;28;20518;-68
2023/09/16 05:12:00;;;;;;;3.57;2.90;;;14.70;99.90;;;;;;5055366;28;20459;-68
2023/09/16 05:14:27;;;;;;;4.27;2.80;;;14.70;99.90;;;;;;5055441;28;20447;-69
2023/09/16 05:16:54;;;;;;;7.20;2.87;;;14.70;99.90;;;;;;5056912;28;20505;-68
2023/09/16 05:19:22;;;;;;;5.77;3.10;;;14.70;99.90;;;;;;5068563;28;20975;-69
2023/09/16 05:21:52;;;;;;;8.40;3.00;;;14.70;99.90;;;;;;5075125;28;20519;-69
2023/09/16 05:24:18;;;;;;;4.67;3.40;;;14.60;99.90;;;;;;5074578;28;20521;-69
2023/09/16 05:26:49;;;;;;;7.30;2.50;;;14.60;99.90;;;;;;5075015;28;20495;-68
2023/09/16 05:29:16;;;;;;;6.30;2.87;;;14.60;99.90;;;;;;5071983;28;20896;-68
2023/09/16 05:31:50;;;;;;;3.67;2.70;;;14.60;99.90;;;;;;5055064;28;20521;-67
2023/09/16 05:34:17;;;;;;;3.37;2.80;;;14.60;99.90;;;;;;5036585;28;20452;-69
2023/09/16 05:36:44;;;;;;;4.20;2.27;;;14.70;99.90;;;;;;5054916;28;20876;-69
2023/09/16 05:39:12;;;;;;;3.33;2.70;;;14.70;99.90;;;;;;5054179;28;20471;-69
2023/09/16 05:41:58;;;;;;;4.67;2.87;;;14.70;99.90;;;;;;5054896;28;20467;-68
2023/09/16 05:44:25;;;;;;;6.80;3.30;;;14.70;99.90;;;;;;5036521;28;20450;-69
2023/09/16 05:46:52;;;;;;;5.50;3.07;;;14.70;99.90;;;;;;5044321;28;20512;-68
2023/09/16 05:49:25;;;;;;;4.07;3.20;;;14.70;99.90;;;;;;5074163;28;20493;-69
2023/09/16 05:52:35;;;;;;;4.53;3.37;;;14.70;99.90;;;;;;5067248;28;21011;-68
2023/09/16 05:55:02;;;;;;;5.57;2.70;;;14.70;99.90;;;;;;5054538;28;20428;-68
2023/09/16 05:57:31;;;;;;;8.23;3.10;;;14.80;99.90;;;;;;5036530;28;20898;-68
2023/09/16 05:59:58;;;;;;;4.33;2.63;;;14.80;99.90;;;;;;5054098;28;20494;-69
2023/09/16 06:02:41;;;;;;;6.03;3.50;;;14.90;99.90;;;;;;5054625;28;20467;-67
2023/09/16 06:05:10;;;;;;;7.83;3.03;;;14.90;99.90;;;;;;5054998;28;20843;-68
2023/09/16 06:07:40;;;;;;;4.77;3.20;;;14.90;99.90;;;;;;5054219;28;20503;-69
2023/09/16 06:10:15;;;;;;;4.37;3.20;;;15.00;99.90;;;;;;5054077;28;20459;-69
2023/09/16 06:12:46;;;;;;;3.87;3.00;;;15.00;99.90;;;;;;5053995;28;20467;-69
2023/09/16 06:15:13;;;;;;;6.97;3.37;;;15.00;99.90;;;;;;5053968;28;20797;-68
2023/09/16 06:17:40;;;;;;;5.50;3.10;;;15.10;99.90;;;;;;5053627;28;20483;-68
2023/09/16 06:20:19;;;;;;;4.97;2.97;;;15.10;99.90;;;;;;5053757;28;20467;-67
2023/09/16 06:22:48;;;;;;;7.07;3.17;;;15.20;99.90;;;;;;5053919;28;20885;-68
2023/09/16 06:25:15;;;;;;;4.60;2.73;;;15.30;99.90;;;;;;5041821;28;20460;-69
2023/09/16 06:27:44;;;;;;;5.50;3.43;;;15.30;99.90;;;;;;5033376;28;20547;-68
2023/09/16 06:30:27;;;;;;;4.07;2.90;;;15.30;99.90;;;;;;5033621;28;20499;-69
2023/09/16 06:32:55;;;;;;;6.67;2.93;;;15.40;99.90;;;;;;5033698;28;20877;-67
2023/09/16 06:35:22;;;;;;;10.43;2.50;;;15.40;99.90;;;;;;5036312;28;20428;-69
2023/09/16 06:37:50;;;;;;;5.63;3.70;;;15.50;99.90;;;;;;5053495;28;20574;-68
2023/09/16 06:40:50;;;;;;;5.50;4.00;;;15.50;99.90;;;;;;5053301;28;20431;-67
2023/09/16 06:43:24;;;;;;;6.80;3.37;;;16.30;99.90;;;;;;5053458;28;20464;-68
2023/09/16 06:45:51;;;;;;;11.23;3.27;;;15.70;99.90;;;;;;5053663;28;20793;-68
2023/09/16 06:48:19;;;;;;;5.13;3.70;;;15.80;99.90;;;;;;5053633;28;20486;-68
2023/09/16 06:51:05;;;;;;;4.70;3.73;;;16.00;99.90;;;;;;5035499;28;20466;-68
2023/09/16 06:53:34;;;;;;;8.00;4.13;;;16.00;99.90;;;;;;5053953;28;20486;-68
2023/09/16 06:56:04;;;;;;;4.83;3.17;;;16.10;99.90;;;;;;5053282;28;20451;-69
2023/09/16 06:58:34;;;;;;;15.83;4.80;;;16.20;99.90;;;;;;5053573;28;20499;-68
2023/09/16 07:01:09;;;;;;;4.77;3.40;;;16.30;99.90;;;;;;5053473;28;20500;-68
2023/09/16 07:03:36;;;;;;;5.40;3.30;;;16.40;99.90;;;;;;5053098;28;20463;-68
2023/09/16 07:06:03;;;;;;;4.73;3.63;;;16.50;99.90;;;;;;5052653;28;20431;-68
2023/09/16 07:08:32;;;;;;;4.63;3.53;;;16.60;99.90;;;;;;5035118;28;20447;-67
2023/09/16 07:11:17;;;;;;;5.83;3.20;;;16.70;99.90;;;;;;5053359;28;20443;-67
2023/09/16 07:13:53;;;;;;;17.90;9.33;;;16.80;99.90;;;;;;5059699;28;20475;-68
2023/09/16 07:16:36;;;;;;;7.53;4.90;;;16.90;99.90;;;;;;5059505;28;20474;-69
2023/09/16 07:19:03;;;;;;;8.37;4.17;;;17.00;99.90;;;;;;5059505;28;20466;-67
2023/09/16 07:21:31;;;;;;;5.33;3.13;;;17.10;99.90;;;;;;5059401;28;20470;-67
2023/09/16 07:24:01;;;;;;;5.60;3.80;;;17.20;99.90;;;;;;5059640;28;20457;-67
2023/09/16 07:26:32;;;;;;;10.63;3.10;;;17.30;99.90;;;;;;5059230;28;20467;-69
2023/09/16 07:29:01;;;;;;;7.93;4.00;;;17.40;99.90;;;;;;5055146;28;20444;-68
2023/09/16 07:31:36;;;;;;;6.80;3.87;;;17.40;99.90;;;;;;5039596;28;20849;-68
2023/09/16 07:34:03;;;;;;;6.13;3.30;;;17.50;99.90;;;;;;5039972;28;20467;-68
2023/09/16 07:36:32;;;;;;;5.43;2.60;;;17.50;99.90;;;;;;5058992;28;20455;-69
2023/09/16 07:38:59;;;;;;;5.20;3.30;;;17.50;99.90;;;;;;5059181;28;20510;-67
2023/09/16 07:41:32;;;;;;;3.80;2.93;;;17.60;99.90;;;;;;5039220;28;20912;-68
2023/09/16 07:44:07;;;;;;;4.13;3.13;;;17.70;99.90;;;;;;5039697;28;20499;-68
2023/09/16 07:46:35;;;;;;;3.93;3.03;;;17.80;99.90;;;;;;5039926;28;20545;-68
2023/09/16 07:49:02;;;;;;;7.70;4.00;;;17.90;99.90;;;;;;5039242;28;20507;-68
2023/09/16 07:51:30;;;;;;;6.87;3.70;;;17.90;99.90;;;;;;5051031;28;20447;-67
2023/09/16 07:53:58;;;;;;;5.90;3.70;;;18.00;99.90;;;;;;5059293;28;20470;-67
2023/09/16 07:56:25;;;;;;;6.17;3.70;;;18.00;99.90;;;;;;5041042;28;20467;-67
2023/09/16 07:58:53;;;;;;;134.60;48.50;;;18.10;99.90;;;;;;5059447;28;20960;-67
2023/09/16 08:01:21;;;;;;;9.37;6.23;;;18.20;99.90;;;;;;5060443;28;20750;-68
2023/09/16 08:03:49;;;;;;;7.33;4.43;;;18.30;99.90;;;;;;5058941;28;20998;-68
2023/09/16 08:06:16;;;;;;;63.70;23.60;;;18.50;99.90;;;;;;5058777;28;20463;-67
2023/09/16 08:08:43;;;;;;;28.60;12.50;;;18.60;99.90;;;;;;5058586;28;20872;-68
2023/09/16 08:11:10;;;;;;;8.30;4.30;;;18.80;99.90;;;;;;5058911;28;20463;-69
2023/09/16 08:13:37;;;;;;;16.07;7.87;;;19.10;99.90;;;;;;5055646;28;21011;-68
2023/09/16 08:16:04;;;;;;;9.33;4.80;;;19.80;99.90;;;;;;5038992;28;20424;-68
2023/09/16 08:18:33;;;;;;;8.77;4.87;;;21.40;99.90;;;;;;5038386;28;20500;-68
2023/09/16 08:21:02;;;;;;;14.87;5.90;;;23.50;99.90;;;;;;5037999;28;20511;-68
2023/09/16 08:23:29;;;;;;;6.30;4.70;;;25.40;99.90;;;;;;5041857;28;20524;-68
2023/09/16 08:25:57;;;;;;;6.37;5.10;;;27.30;99.20;;;;;;5055196;28;20481;-67
2023/09/16 08:28:27;;;;;;;7.23;4.57;;;29.10;92.20;;;;;;5055760;28;20850;-68
2023/09/16 08:30:55;;;;;;;36.37;19.53;;;30.40;79.70;;;;;;5054936;28;20512;-70
2023/09/16 08:33:22;;;;;;;11.13;5.37;;;31.50;72.40;;;;;;5055769;28;20506;-68
2023/09/16 08:35:50;;;;;;;4.70;4.07;;;32.60;67.10;;;;;;5038172;28;20516;-68
2023/09/16 08:38:18;;;;;;;11.47;6.97;;;33.40;60.60;;;;;;5056667;28;20467;-66
2023/09/16 08:40:45;;;;;;;7.33;4.90;;;34.00;57.90;;;;;;5056502;28;20419;-68
2023/09/16 08:43:19;;;;;;;5.20;4.03;;;34.40;55.30;;;;;;5054429;28;20463;-68
2023/09/16 08:45:57;;;;;;;5.43;4.20;;;34.60;54.20;;;;;;5035156;28;20551;-67
2023/09/16 08:48:27;;;;;;;4.63;4.13;;;34.70;53.40;;;;;;5034853;28;20450;-70
2023/09/16 08:50:58;;;;;;;6.27;4.33;;;34.90;52.20;;;;;;5047867;28;20477;-69
2023/09/16 08:53:28;;;;;;;7.57;4.73;;;34.90;51.40;;;;;;5055380;28;20864;-68
2023/09/16 08:55:59;;;;;;;5.53;4.87;;;34.10;51.50;;;;;;5055476;28;20501;-68
2023/09/16 08:58:33;;;;;;;6.30;3.80;;;33.10;53.80;;;;;;5055063;28;20467;-69
2023/09/16 09:01:02;;;;;;;9.10;5.40;;;33.00;54.30;;;;;;5054757;28;20508;-69
2023/09/16 09:03:31;;;;;;;8.13;4.40;;;33.40;53.20;;;;;;5055570;28;20522;-69
2023/09/16 09:06:00;;;;;;;6.47;4.43;;;33.50;53.00;;;;;;5049884;28;20468;-68
2023/09/16 09:08:28;;;;;;;5.17;3.37;;;33.70;52.70;;;;;;5044977;28;20506;-69
2023/09/16 09:10:55;;;;;;;6.93;4.13;;;33.80;53.00;;;;;;5046724;28;20428;-69
2023/09/16 09:13:24;;;;;;;9.57;5.07;;;33.50;53.10;;;;;;5044776;28;20937;-68
2023/09/16 09:15:56;;;;;;;6.80;4.60;;;33.40;53.80;;;;;;5045070;28;20437;-68
2023/09/16 09:18:27;;;;;;;6.23;4.57;;;33.00;53.50;;;;;;5045637;28;20468;-68
2023/09/16 09:20:57;;;;;;;12.97;4.47;;;32.90;53.90;;;;;;5045747;28;20429;-68
2023/09/16 09:23:27;;;;;;;5.07;3.97;;;32.60;54.00;;;;;;5045617;28;20425;-68
2023/09/16 09:25:56;;;;;;;4.80;3.73;;;32.30;54.70;;;;;;5052717;28;20478;-67
2023/09/16 09:28:26;;;;;;;6.47;3.67;;;31.90;55.50;;;;;;5065033;28;20424;-68
2023/09/16 09:30:56;;;;;;;6.73;3.80;;;31.50;56.20;;;;;;5063173;28;21036;-68
2023/09/16 09:33:26;;;;;;;6.70;3.50;;;31.10;56.60;;;;;;5061313;28;20450;-68
2023/09/16 09:36:10;;;;;;;5.30;3.47;;;31.20;57.60;;;;;;5053537;28;20506;-68
2023/09/16 09:38:42;;;;;;;8.73;3.60;;;31.50;57.20;;;;;;5055691;28;20471;-67
2023/09/16 09:41:09;;;;;;;6.67;4.20;;;31.40;57.60;;;;;;5057369;28;20455;-67
2023/09/16 09:43:36;;;;;;;4.83;4.17;;;30.80;57.60;;;;;;5055545;28;20428;-68
2023/09/16 09:46:04;;;;;;;13.93;8.70;;;29.90;58.30;;;;;;5054349;28;20467;-68
2023/09/16 09:48:32;;;;;;;17.83;10.63;;;29.50;58.80;;;;;;5053172;28;20478;-67
2023/09/16 09:51:00;;;;;;;8.60;5.87;;;29.80;59.80;;;;;;5054076;28;20432;-68
2023/09/16 09:53:28;;;;;;;17.67;9.80;;;29.80;59.40;;;;;;5054139;28;20501;-68
2023/09/16 09:55:56;;;;;;;32.63;17.17;;;29.30;60.00;;;;;;5053931;28;20503;-68
2023/09/16 09:58:24;;;;;;;6.60;4.30;;;28.80;62.00;;;;;;5052916;28;20559;-68
2023/09/16 10:00:52;;;;;;;8.70;3.93;;;28.60;63.70;;;;;;5053456;28;20825;-67
2023/09/16 10:03:20;;;;;;;6.03;3.90;;;29.10;64.40;;;;;;5053579;28;20524;-68
2023/09/16 10:05:48;;;;;;;7.10;4.67;;;30.10;61.70;;;;;;5053503;28;20527;-68
2023/09/16 10:08:15;;;;;;;9.70;6.23;;;30.80;59.70;;;;;;5052522;28;20498;-69
2023/09/16 10:10:43;;;;;;;17.53;8.27;;;31.20;58.70;;;;;;5053996;28;20490;-68
2023/09/16 10:13:12;;;;;;;4.63;3.37;;;30.60;59.20;;;;;;5054176;28;20854;-67
2023/09/16 10:15:41;;;;;;;12.67;6.80;;;30.30;61.00;;;;;;5053354;28;20502;-68
2023/09/16 10:18:08;;;;;;;6.10;4.03;;;30.40;60.50;;;;;;5052978;28;20515;-68
2023/09/16 10:20:38;;;;;;;6.07;3.03;;;30.40;60.70;;;;;;5053600;28;20467;-68
2023/09/16 10:23:06;;;;;;;4.20;3.27;;;30.30;59.80;;;;;;5053808;28;20851;-68
2023/09/16 10:25:35;;;;;;;7.83;5.33;;;30.50;60.20;;;;;;5052146;28;20511;-68
2023/09/16 10:28:04;;;;;;;5.57;4.13;;;30.80;60.50;;;;;;5052946;28;20488;-67
2023/09/16 10:30:34;;;;;;;4.63;4.07;;;31.10;60.60;;;;;;5053259;28;20546;-69
2023/09/16 10:33:04;;;;;;;5.87;4.60;;;31.20;60.00;;;;;;5053467;28;20436;-68
2023/09/16 10:35:32;;;;;;;7.43;5.33;;;31.40;59.80;;;;;;5053440;28;20562;-68
2023/09/16 10:38:01;;;;;;;9.93;5.23;;;31.50;58.80;;;;;;5053129;28;20549;-68
2023/09/16 10:40:28;;;;;;;6.70;4.57;;;31.70;58.60;;;;;;5052583;28;20560;-68
2023/09/16 10:42:59;;;;;;;4.93;3.30;;;31.80;58.40;;;;;;5052519;28;20455;-67
2023/09/16 10:45:28;;;;;;;7.40;5.10;;;31.80;57.70;;;;;;5053380;28;20954;-69
2023/09/16 10:47:59;;;;;;;8.67;5.40;;;31.70;58.00;;;;;;5050074;28;20494;-68
2023/09/16 10:50:30;;;;;;;4.20;3.53;;;31.40;58.90;;;;;;5033592;28;20897;-68
2023/09/16 10:53:03;;;;;;;6.80;4.87;;;31.20;59.00;;;;;;5033333;28;20431;-69
2023/09/16 10:55:39;;;;;;;4.63;3.40;;;30.80;60.50;;;;;;5015616;28;20467;-68
2023/09/16 10:58:11;;;;;;;6.30;4.20;;;30.60;60.00;;;;;;5033059;28;20451;-69
2023/09/16 11:00:41;;;;;;;4.67;4.20;;;30.50;60.40;;;;;;5052500;28;20483;-68
2023/09/16 11:03:14;;;;;;;4.83;3.93;;;29.80;60.70;;;;;;5046607;28;20532;-68
2023/09/16 11:05:41;;;;;;;5.30;4.80;;;29.60;61.30;;;;;;5032779;28;20816;-68
2023/09/16 11:08:10;;;;;;;7.10;5.00;;;29.30;62.70;;;;;;5032928;28;20543;-68
2023/09/16 11:10:38;;;;;;;4.80;4.27;;;29.10;63.50;;;;;;5051256;28;20459;-69
2023/09/16 11:13:07;;;;;;;5.33;3.90;;;28.90;66.80;;;;;;5052852;28;20439;-68
2023/09/16 11:15:36;;;;;;;10.10;3.90;;;28.70;66.00;;;;;;5052323;28;20456;-68
2023/09/16 11:18:05;;;;;;;4.40;4.00;;;28.50;66.70;;;;;;5052581;28;20869;-68
2023/09/16 11:20:37;;;;;;;10.43;6.23;;;28.40;68.50;;;;;;5037973;28;20526;-67
2023/09/16 11:23:06;;;;;;;4.50;3.87;;;28.20;68.40;;;;;;5032506;28;20489;-67
2023/09/16 11:25:34;;;;;;;4.53;4.10;;;28.00;69.10;;;;;;5048560;28;20451;-67
2023/09/16 11:28:08;;;;;;;5.57;4.40;;;27.90;67.90;;;;;;5052883;28;20463;-67
2023/09/16 11:30:37;;;;;;;4.43;4.03;;;27.70;70.10;;;;;;5052141;28;20792;-68
2023/09/16 11:33:29;;;;;;;5.10;4.47;;;27.60;69.70;;;;;;5052139;28;20958;-69
2023/09/16 11:36:17;;;;;;;4.90;4.40;;;27.60;70.60;;;;;;5034499;28;20506;-69
2023/09/16 11:38:58;;;;;;;8.80;4.97;;;27.40;72.20;;;;;;5032195;28;20470;-67
2023/09/16 11:41:25;;;;;;;5.20;4.33;;;27.20;72.30;;;;;;5032357;28;20432;-67
2023/09/16 11:43:53;;;;;;;9.87;4.83;;;27.20;74.80;;;;;;5034412;28;20520;-68
2023/09/16 11:46:23;;;;;;;6.67;4.67;;;27.00;74.10;;;;;;5052292;28;20866;-68
2023/09/16 11:48:52;;;;;;;5.10;4.50;;;27.00;75.00;;;;;;5051786;28;20428;-68
2023/09/16 11:51:25;;;;;;;5.20;4.43;;;26.40;74.70;;;;;;5032130;28;20428;-68
2023/09/16 11:53:53;;;;;;;4.67;4.27;;;26.90;75.70;;;;;;5032494;28;20463;-69
2023/09/16 11:56:23;;;;;;;4.43;3.90;;;26.80;76.00;;;;;;5050456;28;20849;-67
2023/09/16 11:58:50;;;;;;;5.97;4.07;;;26.70;76.20;;;;;;5055784;28;20423;-68
2023/09/16 12:01:22;;;;;;;7.33;4.93;;;26.70;76.10;;;;;;5056340;28;20499;-68
2023/09/16 12:03:49;;;;;;;8.60;4.50;;;26.70;76.50;;;;;;5056348;28;20458;-69
2023/09/16 12:06:20;;;;;;;5.73;4.57;;;26.70;77.60;;;;;;5045838;28;20842;-68
2023/09/16 12:08:49;;;;;;;4.47;4.00;;;26.70;76.80;;;;;;5036332;28;20436;-68
2023/09/16 12:11:18;;;;;;;6.10;3.90;;;26.70;78.30;;;;;;5035753;28;20475;-67
2023/09/16 12:13:46;;;;;;;4.67;4.13;;;26.70;76.90;;;;;;5035665;28;20494;-67
2023/09/16 12:16:14;;;;;;;8.47;5.97;;;26.80;78.30;;;;;;5050080;28;20507;-68
2023/09/16 12:18:41;;;;;;;5.03;4.47;;;26.80;78.70;;;;;;5056143;28;20644;-68
2023/09/16 12:21:09;;;;;;;4.27;3.87;;;26.90;78.50;;;;;;5055364;28;20471;-69
2023/09/16 12:23:37;;;;;;;4.20;3.80;;;26.90;76.50;;;;;;5056063;28;20768;-70
2023/09/16 12:26:08;;;;;;;3.90;3.50;;;26.80;76.40;;;;;;5055213;28;20547;-69
2023/09/16 12:28:38;;;;;;;5.80;4.03;;;26.70;78.50;;;;;;5055303;28;20436;-68
2023/09/16 12:31:08;;;;;;;4.83;3.30;;;26.80;79.80;;;;;;5055667;28;20423;-68
2023/09/16 12:33:40;;;;;;;5.50;3.90;;;26.80;79.60;;;;;;5055572;28;20438;-67
2023/09/16 12:36:08;;;;;;;3.53;2.77;;;26.90;77.90;;;;;;5055871;28;20477;-67
2023/09/16 12:38:36;;;;;;;7.60;4.30;;;27.00;77.60;;;;;;5055440;28;20440;-68
2023/09/16 12:41:12;;;;;;;17.73;10.50;;;27.00;79.40;;;;;;5039094;28;20518;-68
2023/09/16 12:43:40;;;;;;;5.13;4.57;;;27.00;79.20;;;;;;5036257;28;21013;-69
2023/09/16 12:46:09;;;;;;;4.10;3.63;;;27.00;79.00;;;;;;5050585;28;20525;-66
2023/09/16 12:48:38;;;;;;;5.70;4.10;;;27.00;78.10;;;;;;5056604;28;20787;-67
2023/09/16 12:51:07;;;;;;;4.80;4.30;;;26.90;81.10;;;;;;5056132;28;20449;-68
2023/09/16 12:53:34;;;;;;;5.87;4.90;;;26.90;78.60;;;;;;5056382;28;20464;-69
2023/09/16 12:56:03;;;;;;;6.87;4.60;;;26.90;79.10;;;;;;5054986;28;20428;-69
2023/09/16 12:58:31;;;;;;;7.23;4.30;;;27.00;79.80;;;;;;5037233;28;20814;-68
2023/09/16 13:01:01;;;;;;;4.03;3.33;;;27.00;81.00;;;;;;5054822;28;20539;-67
2023/09/16 13:03:29;;;;;;;4.33;3.93;;;26.90;79.30;;;;;;5054405;28;20443;-68
2023/09/16 13:05:58;;;;;;;9.13;5.63;;;26.90;79.00;;;;;;5055245;28;20788;-68